createdAt,value
2019-03-23T00:00:09.068Z,3.67
2019-03-23T00:02:39.899Z,3.52
2019-03-23T00:05:09.301Z,3.95
2019-03-23T00:07:38.675Z,4.10
2019-03-23T00:10:08.392Z,3.55
2019-03-23T00:12:37.751Z,3.40
2019-03-23T00:15:09.532Z,3.67
2019-03-23T00:17:38.847Z,3.58
2019-03-23T00:20:08.159Z,3.85
2019-03-23T00:22:37.463Z,3.40
2019-03-23T00:25:07.157Z,3.70
2019-03-23T00:27:36.545Z,3.77
2019-03-23T00:30:09.149Z,3.60
2019-03-23T00:32:38.440Z,3.20
2019-03-23T00:35:07.771Z,3.40
2019-03-23T00:37:37.095Z,3.40
2019-03-23T00:40:07.532Z,3.60
2019-03-23T00:42:36.834Z,3.30
2019-03-23T00:45:07.377Z,3.02
2019-03-23T00:47:36.685Z,2.83
2019-03-23T00:50:06.838Z,3.20
2019-03-23T00:52:36.152Z,3.47
2019-03-23T00:55:07.851Z,3.20
2019-03-23T00:57:37.181Z,3.10
2019-03-23T01:00:08.590Z,2.85
2019-03-23T01:02:37.976Z,2.90
2019-03-23T01:05:07.886Z,2.95
2019-03-23T01:07:37.290Z,2.70
2019-03-23T01:10:08.970Z,2.70
2019-03-23T01:12:38.441Z,2.60
2019-03-23T01:15:10.000Z,2.90
2019-03-23T01:17:39.335Z,2.80
2019-03-23T01:20:12.841Z,2.60
2019-03-23T01:22:42.175Z,2.40
2019-03-23T01:25:11.448Z,2.30
2019-03-23T01:27:40.683Z,2.60
2019-03-23T01:30:11.842Z,2.77
2019-03-23T01:32:41.151Z,2.40
2019-03-23T01:35:10.409Z,2.20
2019-03-23T01:37:39.579Z,2.60
2019-03-23T01:40:08.925Z,2.20
2019-03-23T01:42:38.353Z,2.40
2019-03-23T01:45:11.886Z,2.30
2019-03-23T01:47:41.184Z,2.30
2019-03-23T01:50:11.573Z,1.95
2019-03-23T01:52:40.860Z,2.10
2019-03-23T01:55:10.157Z,2.35
2019-03-23T01:57:39.449Z,2.12
2019-03-23T02:00:12.961Z,2.20
2019-03-23T02:02:42.341Z,2.15
2019-03-23T02:05:11.654Z,2.33
2019-03-23T02:07:41.018Z,2.20
2019-03-23T02:10:11.450Z,2.45
2019-03-23T02:12:40.759Z,2.08
2019-03-23T02:15:11.343Z,2.30
2019-03-23T02:17:40.731Z,2.50
2019-03-23T02:20:11.489Z,2.12
2019-03-23T02:22:40.870Z,2.33
2019-03-23T02:25:10.170Z,2.30
2019-03-23T02:27:39.479Z,2.17
2019-03-23T02:30:10.683Z,2.35
2019-03-23T02:32:40.028Z,2.72
2019-03-23T02:35:09.750Z,2.55
2019-03-23T02:37:39.065Z,2.50
2019-03-23T02:40:09.909Z,2.62
2019-03-23T02:42:39.191Z,2.62
2019-03-23T02:45:10.325Z,2.90
2019-03-23T02:47:39.645Z,2.40
2019-03-23T02:50:09.870Z,3.00
2019-03-23T02:52:39.417Z,2.80
2019-03-23T02:55:10.400Z,2.80
2019-03-23T02:57:39.701Z,3.20
2019-03-23T03:00:11.763Z,3.05
2019-03-23T03:02:41.083Z,2.90
2019-03-23T03:05:10.743Z,3.30
2019-03-23T03:07:42.557Z,3.05
2019-03-23T03:10:12.292Z,3.77
2019-03-23T03:12:41.473Z,3.20
2019-03-23T03:15:10.651Z,3.65
2019-03-23T03:17:39.893Z,3.42
2019-03-23T03:20:09.904Z,3.40
2019-03-23T03:22:39.145Z,3.50
2019-03-23T03:25:08.429Z,4.00
2019-03-23T03:27:37.643Z,4.12
2019-03-23T03:30:11.422Z,3.80
2019-03-23T03:32:40.680Z,4.10
2019-03-23T03:35:09.923Z,4.50
2019-03-23T03:37:39.184Z,4.60
2019-03-23T03:40:09.046Z,4.50
2019-03-23T03:42:38.395Z,4.40
2019-03-23T03:45:08.333Z,4.85
2019-03-23T03:47:41.023Z,4.67
2019-03-23T03:50:09.548Z,4.58
2019-03-23T03:52:38.780Z,5.10
2019-03-23T03:55:07.952Z,5.00
2019-03-23T03:57:38.094Z,5.50
2019-03-23T04:00:08.398Z,5.35
2019-03-23T04:02:38.321Z,5.75
2019-03-23T04:05:07.516Z,5.58
2019-03-23T04:07:36.767Z,5.70
2019-03-23T04:10:06.668Z,5.67
2019-03-23T04:12:35.983Z,5.28
2019-03-23T04:15:09.522Z,5.37
2019-03-23T04:17:38.765Z,5.35
2019-03-23T04:20:08.659Z,5.40
2019-03-23T04:22:38.004Z,5.53
2019-03-23T04:25:07.902Z,5.87
2019-03-23T04:27:37.073Z,6.05
2019-03-23T04:30:07.864Z,5.97
2019-03-23T04:32:37.058Z,6.67
2019-03-23T04:35:07.658Z,6.33
2019-03-23T04:37:36.928Z,6.30
2019-03-23T04:40:09.181Z,6.60
2019-03-23T04:42:38.500Z,5.90
2019-03-23T04:45:09.268Z,6.53
2019-03-23T04:47:38.590Z,6.60
2019-03-23T04:50:10.262Z,6.42
2019-03-23T04:52:40.490Z,7.17
2019-03-23T04:55:13.310Z,7.35
2019-03-23T04:57:42.542Z,7.92
2019-03-23T05:00:18.821Z,7.28
2019-03-23T05:02:48.087Z,7.72
2019-03-23T05:05:17.237Z,7.90
2019-03-23T05:07:46.417Z,7.85
2019-03-23T05:10:15.598Z,7.12
2019-03-23T05:12:44.856Z,7.10
2019-03-23T05:15:14.027Z,6.87
2019-03-23T05:17:43.196Z,7.22
2019-03-23T05:20:27.097Z,6.95
2019-03-23T05:22:56.279Z,7.40
2019-03-23T05:25:27.204Z,6.47
2019-03-23T05:27:56.958Z,6.92
2019-03-23T05:30:26.123Z,6.60
2019-03-23T05:32:55.301Z,6.75
2019-03-23T05:35:25.530Z,6.70
2019-03-23T05:37:54.690Z,7.00
2019-03-23T05:40:23.871Z,6.80
2019-03-23T05:42:53.034Z,6.90
2019-03-23T05:45:22.240Z,6.45
2019-03-23T05:47:51.408Z,6.80
2019-03-23T05:50:20.671Z,6.85
2019-03-23T05:52:49.970Z,6.50
2019-03-23T05:55:19.149Z,7.30
2019-03-23T05:57:48.347Z,6.75
2019-03-23T06:00:18.786Z,6.62
2019-03-23T06:02:48.027Z,6.70
2019-03-23T06:05:17.570Z,7.17
2019-03-23T06:07:47.886Z,6.33
2019-03-23T06:10:17.097Z,6.40
2019-03-23T06:12:46.327Z,7.08
2019-03-23T06:15:15.498Z,6.30
2019-03-23T06:17:44.677Z,6.90
2019-03-23T06:20:13.855Z,6.40
2019-03-23T06:22:43.042Z,6.75
2019-03-23T06:25:13.302Z,6.12
2019-03-23T06:27:42.551Z,6.45
2019-03-23T06:30:11.854Z,6.50
2019-03-23T06:32:41.249Z,6.50
2019-03-23T06:35:10.425Z,6.40
2019-03-23T06:37:39.601Z,6.10
2019-03-23T06:40:09.927Z,6.37
2019-03-23T06:42:40.984Z,6.70
2019-03-23T06:45:10.983Z,6.30
2019-03-23T06:47:40.414Z,6.72
2019-03-23T06:50:10.600Z,6.70
2019-03-23T06:52:39.831Z,5.92
2019-03-23T06:55:09.338Z,6.03
2019-03-23T06:57:38.502Z,5.33
2019-03-23T07:00:10.630Z,5.80
2019-03-23T07:02:39.922Z,5.30
2019-03-23T07:05:12.420Z,5.30
2019-03-23T07:07:41.925Z,5.45
2019-03-23T07:10:12.506Z,5.50
2019-03-23T07:12:41.657Z,5.20
2019-03-23T07:15:19.927Z,5.80
2019-03-23T07:17:42.547Z,5.80
2019-03-23T07:20:13.674Z,5.65
2019-03-23T07:22:42.898Z,5.85
2019-03-23T07:25:12.146Z,5.35
2019-03-23T07:27:41.469Z,6.10
2019-03-23T07:30:20.185Z,6.15
2019-03-23T07:32:49.409Z,6.50
2019-03-23T07:35:18.606Z,6.03
2019-03-23T07:37:47.783Z,6.50
2019-03-23T07:40:17.174Z,6.90
2019-03-23T07:42:46.459Z,6.97
2019-03-23T07:45:16.052Z,6.05
2019-03-23T07:47:45.277Z,6.85
2019-03-23T07:50:14.733Z,6.95
2019-03-23T07:52:45.324Z,7.22
2019-03-23T07:55:16.272Z,7.70
2019-03-23T07:57:45.433Z,7.10
2019-03-23T08:00:17.389Z,6.47
2019-03-23T08:02:46.568Z,7.00
2019-03-23T08:05:15.731Z,7.20
2019-03-23T08:07:44.992Z,7.12
2019-03-23T08:10:32.448Z,7.30
2019-03-23T08:15:30.378Z,8.05
2019-03-23T08:17:59.642Z,7.58
2019-03-23T08:20:28.869Z,7.33
2019-03-23T08:22:58.039Z,8.80
2019-03-23T08:25:27.211Z,8.48
2019-03-23T08:27:56.533Z,8.58
2019-03-23T08:30:25.723Z,9.08
2019-03-23T08:32:54.968Z,9.00
2019-03-23T08:35:24.134Z,9.18
2019-03-23T08:37:53.369Z,9.98
2019-03-23T08:40:22.629Z,9.88
2019-03-23T08:42:51.801Z,9.15
2019-03-23T08:45:21.333Z,8.70
2019-03-23T08:47:51.642Z,9.00
2019-03-23T08:50:20.839Z,8.35
2019-03-23T08:52:50.013Z,8.30
2019-03-23T08:55:19.191Z,7.55
2019-03-23T08:57:48.387Z,7.35
2019-03-23T09:00:17.667Z,8.90
2019-03-23T09:02:46.853Z,8.93
2019-03-23T09:05:16.082Z,8.18
2019-03-23T09:07:45.569Z,8.63
2019-03-23T09:10:14.794Z,7.12
2019-03-23T09:12:44.616Z,8.03
2019-03-23T09:15:14.821Z,8.70
2019-03-23T09:17:44.452Z,8.18
2019-03-23T09:20:13.854Z,7.40
2019-03-23T09:22:43.045Z,7.60
2019-03-23T09:25:12.298Z,6.87
2019-03-23T09:27:41.485Z,7.08
2019-03-23T09:30:12.518Z,7.83
2019-03-23T09:32:41.750Z,7.80
2019-03-23T09:35:12.003Z,7.08
2019-03-23T09:37:41.221Z,7.42
2019-03-23T09:40:11.508Z,7.47
2019-03-23T09:42:40.853Z,7.85
2019-03-23T09:45:10.114Z,7.75
2019-03-23T09:47:39.592Z,7.35
2019-03-23T09:50:10.129Z,7.90
2019-03-23T09:52:39.429Z,7.67
2019-03-23T09:55:08.941Z,8.03
2019-03-23T09:57:38.253Z,8.40
2019-03-23T10:00:09.731Z,8.90
2019-03-23T10:02:39.063Z,7.83
2019-03-23T10:05:08.287Z,8.55
2019-03-23T10:07:37.537Z,7.62
2019-03-23T10:10:07.235Z,9.03
2019-03-23T10:12:36.429Z,8.43
2019-03-23T10:15:07.084Z,9.55
2019-03-23T10:17:36.457Z,8.95
2019-03-23T10:20:06.400Z,9.50
2019-03-23T10:22:36.710Z,10.05
2019-03-23T10:25:06.604Z,10.18
2019-03-23T10:27:36.789Z,10.43
2019-03-23T10:30:08.321Z,9.95
2019-03-23T10:32:38.077Z,9.90
2019-03-23T10:35:08.583Z,10.60
2019-03-23T10:37:37.837Z,10.90
2019-03-23T10:40:08.653Z,10.70
2019-03-23T10:42:38.146Z,10.88
2019-03-23T10:45:08.383Z,11.25
2019-03-23T10:47:37.868Z,11.68
2019-03-23T10:50:07.302Z,11.28
2019-03-23T10:52:43.975Z,14.10
2019-03-23T10:55:13.766Z,11.68
2019-03-23T10:57:43.029Z,12.20
2019-03-23T11:00:13.408Z,11.57
2019-03-23T11:02:43.124Z,11.45
2019-03-23T11:05:12.379Z,11.63
2019-03-23T11:07:41.693Z,11.48
2019-03-23T11:10:13.029Z,11.53
2019-03-23T11:12:42.261Z,11.12
2019-03-23T11:15:12.417Z,11.85
2019-03-23T11:17:41.646Z,11.50
2019-03-23T11:20:17.351Z,11.97
2019-03-23T11:25:15.207Z,12.00
2019-03-23T11:27:44.364Z,12.13
2019-03-23T11:30:14.203Z,12.30
2019-03-23T11:32:43.433Z,11.85
2019-03-23T11:35:12.693Z,12.13
2019-03-23T11:37:45.111Z,12.43
2019-03-23T11:40:14.549Z,11.57
2019-03-23T11:42:49.958Z,11.48
2019-03-23T11:45:14.690Z,11.85
2019-03-23T11:47:44.000Z,11.48
2019-03-23T11:50:13.178Z,11.80
2019-03-23T11:52:42.787Z,12.40
2019-03-23T11:55:12.199Z,12.18
2019-03-23T11:57:41.633Z,11.70
2019-03-23T12:00:13.665Z,12.65
2019-03-23T12:02:43.165Z,12.50
2019-03-23T12:05:12.420Z,12.47
2019-03-23T12:07:41.664Z,12.53
2019-03-23T12:10:11.996Z,12.68
2019-03-23T12:12:41.923Z,13.30
2019-03-23T12:15:12.226Z,13.75
2019-03-23T12:17:41.659Z,12.10
2019-03-23T12:20:10.913Z,12.75
2019-03-23T12:22:41.179Z,13.72
2019-03-23T12:25:10.427Z,13.10
2019-03-23T12:27:39.620Z,13.62
2019-03-23T12:30:14.347Z,12.53
2019-03-23T12:32:43.562Z,13.90
2019-03-23T12:35:12.882Z,12.90
2019-03-23T12:37:43.212Z,13.78
2019-03-23T12:44:04.785Z,13.25
2019-03-23T12:46:34.119Z,13.05
2019-03-23T12:49:03.601Z,13.00
2019-03-23T12:51:32.900Z,13.32
2019-03-23T12:54:02.179Z,13.25
2019-03-23T12:56:31.590Z,13.53
2019-03-23T12:59:00.911Z,13.85
2019-03-23T13:01:30.287Z,12.85
2019-03-23T13:04:02.310Z,12.75
2019-03-23T13:06:33.610Z,12.88
2019-03-23T13:09:03.997Z,13.28
2019-03-23T13:11:35.483Z,12.20
2019-03-23T13:14:04.760Z,12.60
2019-03-23T13:16:34.206Z,12.75
2019-03-23T13:19:03.641Z,13.03
2019-03-23T13:21:37.543Z,12.75
2019-03-23T13:24:07.555Z,12.53
2019-03-23T13:26:36.979Z,13.18
2019-03-23T13:29:06.397Z,13.45
2019-03-23T13:31:35.750Z,12.50
2019-03-23T13:34:05.408Z,12.73
2019-03-23T13:36:35.320Z,13.05
2019-03-23T13:39:06.129Z,12.75
2019-03-23T13:41:41.323Z,12.60
2019-03-23T13:44:06.699Z,12.90
2019-03-23T13:46:35.928Z,12.82
2019-03-23T13:49:05.401Z,13.48
2019-03-23T13:51:34.716Z,12.53
2019-03-23T13:54:10.923Z,13.72
2019-03-23T13:56:40.303Z,12.75
2019-03-23T13:59:09.513Z,14.28
2019-03-23T14:01:38.811Z,12.65
2019-03-23T14:04:08.064Z,11.78
2019-03-23T14:06:37.361Z,12.95
2019-03-23T14:09:06.865Z,12.90
2019-03-23T14:11:36.638Z,13.70
2019-03-23T14:14:06.255Z,13.45
2019-03-23T14:16:35.608Z,14.30
2019-03-23T14:19:05.342Z,13.88
2019-03-23T14:21:35.126Z,14.25
2019-03-23T14:24:04.447Z,14.15
2019-03-23T14:26:33.713Z,13.75
2019-03-23T14:29:02.983Z,14.70
2019-03-23T14:31:32.682Z,13.70
2019-03-23T14:34:01.917Z,14.40
2019-03-23T14:36:31.258Z,14.18
2019-03-23T14:39:00.871Z,14.78
2019-03-23T14:41:38.707Z,14.73
2019-03-23T14:44:08.273Z,14.93
2019-03-23T14:46:37.660Z,14.93
2019-03-23T14:49:08.457Z,14.35
2019-03-23T14:51:37.797Z,14.75
2019-03-23T14:54:07.151Z,14.85
2019-03-23T14:56:36.499Z,14.60
2019-03-23T14:59:05.856Z,14.80
2019-03-23T15:01:35.209Z,14.85
2019-03-23T15:04:04.641Z,15.23
2019-03-23T15:06:35.001Z,14.93
2019-03-23T15:09:05.597Z,14.68
2019-03-23T15:11:40.325Z,15.30
2019-03-23T15:14:09.646Z,14.20
2019-03-23T15:16:38.916Z,13.88
2019-03-23T15:19:08.407Z,14.55
2019-03-23T15:21:37.856Z,14.98
2019-03-23T15:24:07.389Z,15.05
2019-03-23T15:26:36.735Z,14.90
2019-03-23T15:29:06.080Z,15.58
2019-03-23T15:31:35.407Z,14.98
2019-03-23T15:34:04.685Z,15.35
2019-03-23T15:36:33.919Z,14.80
2019-03-23T15:39:04.535Z,15.28
2019-03-23T15:41:33.851Z,14.75
